Time;durP1;ratioP1;P1;durP2;ratioP2;P2;SDS_P1;SDS_P2;PMS_P1;PMS_P2;Temp;Humidity;BMP_temperature;BMP_pressure;BME280_temperature;BME280_humidity;BME280_pressure;Samples;Min_cycle;Max_cycle;Signal;HPM_P1;HPM_P2
2023/10/24 00:01:17;;;;;;;;;10.67;9.00;;;;;13.78;77.74;100036.00;5059006;28;45242;-70
2023/10/24 00:03:42;;;;;;;;;10.33;8.33;;;;;13.81;77.48;100038.31;5058613;28;47292;-71
2023/10/24 00:06:08;;;;;;;;;10.00;10.00;;;;;13.77;77.57;100031.66;5058680;28;45372;-70
2023/10/24 00:08:33;;;;;;;;;10.00;8.33;;;;;13.83;77.51;100037.13;5057786;28;45561;-70
2023/10/24 00:11:03;;;;;;;;;8.00;8.00;;;;;13.82;77.67;100034.66;5057285;28;45645;-71
2023/10/24 00:13:29;;;;;;;;;9.00;8.00;;;;;13.88;77.65;100028.56;5058701;28;47376;-70
2023/10/24 00:15:54;;;;;;;;;8.00;8.00;;;;;13.94;77.29;100017.13;5057971;28;45522;-71
2023/10/24 00:18:20;;;;;;;;;10.00;7.00;;;;;13.99;76.97;100018.25;5057499;28;45518;-69
2023/10/24 00:20:45;;;;;;;;;10.67;8.33;;;;;13.96;77.17;100009.75;5058878;28;45394;-70
2023/10/24 00:23:11;;;;;;;;;7.33;7.00;;;;;13.68;77.02;99959.63;5058183;28;46242;-70
2023/10/24 00:25:36;;;;;;;;;9.00;7.00;;;;;14.00;77.11;100027.91;5057555;28;45324;-70
2023/10/24 00:28:01;;;;;;;;;8.67;8.67;;;;;14.03;76.94;100024.06;5058493;28;45414;-70
2023/10/24 00:30:30;;;;;;;;;9.67;8.67;;;;;13.99;77.09;100015.56;5058468;28;47165;-70
2023/10/24 00:32:55;;;;;;;;;11.67;11.67;;;;;13.89;77.22;100008.84;5058341;28;46752;-70
2023/10/24 00:35:20;;;;;;;;;11.00;11.00;;;;;13.97;77.18;100016.75;5058284;28;49574;-70
2023/10/24 00:37:45;;;;;;;;;9.00;8.33;;;;;13.97;77.47;100017.59;5058297;28;45357;-69
2023/10/24 00:40:11;;;;;;;;;12.67;12.67;;;;;13.93;77.45;100010.13;5057887;28;54798;-69
2023/10/24 00:42:36;;;;;;;;;13.00;12.33;;;;;13.94;77.53;100019.81;5057019;28;46676;-70
2023/10/24 00:45:02;;;;;;;;;12.33;10.67;;;;;13.83;77.72;100004.25;5058073;28;46638;-70
2023/10/24 00:47:28;;;;;;;;;11.00;11.00;;;;;13.93;77.86;100016.31;5057592;28;45456;-70
2023/10/24 00:49:53;;;;;;;;;14.00;13.00;;;;;13.85;78.19;100007.56;5058486;28;45194;-70
2023/10/24 00:52:20;;;;;;;;;16.00;14.00;;;;;13.88;78.27;100009.88;5057954;28;46410;-69
2023/10/24 00:54:46;;;;;;;;;9.67;9.33;;;;;13.90;78.05;100010.50;5057005;28;45578;-69
2023/10/24 00:57:12;;;;;;;;;11.00;11.00;;;;;13.86;78.42;100010.06;5057877;28;45394;-70
2023/10/24 00:59:39;;;;;;;;;13.33;12.33;;;;;13.83;78.47;99999.72;5058308;28;45506;-70
2023/10/24 01:02:06;;;;;;;;;13.33;12.33;;;;;13.83;78.50;100010.41;5057219;28;45770;-69
2023/10/24 01:04:32;;;;;;;;;9.67;9.67;;;;;13.89;78.36;100004.34;5039862;28;45330;-69
2023/10/24 01:06:58;;;;;;;;;13.00;11.00;;;;;13.86;78.47;99993.19;5057893;28;45428;-70
2023/10/24 01:09:24;;;;;;;;;12.00;10.00;;;;;13.85;78.46;99992.34;5058186;28;45582;-70
2023/10/24 01:11:49;;;;;;;;;13.00;13.00;;;;;13.91;78.55;99998.81;5057248;28;47354;-70
2023/10/24 01:14:15;;;;;;;;;11.67;10.33;;;;;13.88;78.57;99983.16;5057922;28;45355;-70
2023/10/24 01:16:44;;;;;;;;;10.00;10.00;;;;;13.80;78.73;99994.72;5057725;28;45471;-69
2023/10/24 01:19:10;;;;;;;;;15.00;13.67;;;;;13.78;78.67;99982.56;5057780;28;45572;-70
2023/10/24 01:21:37;;;;;;;;;11.33;11.33;;;;;13.85;78.84;99986.19;5055857;28;46664;-69
2023/10/24 01:24:02;;;;;;;;;11.67;11.00;;;;;13.90;78.58;99994.47;5057694;28;45320;-70
2023/10/24 01:26:27;;;;;;;;;10.00;9.67;;;;;13.94;78.49;99998.44;5057435;28;45257;-70
2023/10/24 01:28:53;;;;;;;;;10.67;10.67;;;;;13.97;78.48;100003.41;5057779;28;45473;-69
2023/10/24 01:31:18;;;;;;;;;8.67;8.67;;;;;13.91;78.61;100004.97;5057256;28;45981;-69
2023/10/24 01:33:44;;;;;;;;;13.00;11.67;;;;;13.87;79.32;100013.56;5057304;28;45277;-74
2023/10/24 01:36:09;;;;;;;;;12.00;11.67;;;;;13.88;79.06;100010.69;5056189;28;62840;-69
2023/10/24 01:38:34;;;;;;;;;11.00;10.67;;;;;13.93;79.09;100016.31;5057536;28;45558;-70
2023/10/24 01:41:00;;;;;;;;;13.33;12.00;;;;;13.84;79.09;99995.22;5057221;28;45532;-70
2023/10/24 01:43:25;;;;;;;;;11.33;11.33;;;;;13.72;78.69;99956.59;5056410;28;60147;-69
2023/10/24 01:45:50;;;;;;;;;9.67;7.00;;;;;14.00;78.71;99990.50;5056694;28;45821;-70
2023/10/24 01:48:16;;;;;;;;;15.00;12.67;;;;;13.73;78.39;99932.38;5056859;28;45419;-70
2023/10/24 01:50:41;;;;;;;;;14.00;13.00;;;;;14.08;78.86;99994.94;5055521;28;64129;-69
2023/10/24 01:53:06;;;;;;;;;11.67;11.67;;;;;14.09;78.93;100003.78;5056613;28;45428;-70
2023/10/24 01:55:32;;;;;;;;;12.00;12.00;;;;;14.07;78.67;99989.78;5056637;28;45493;-71
2023/10/24 01:57:57;;;;;;;;;11.33;10.33;;;;;14.10;78.82;99994.75;5038334;28;45484;-69
2023/10/24 02:00:22;;;;;;;;;12.00;12.00;;;;;14.09;78.65;99985.91;5055237;28;45901;-69
2023/10/24 02:02:48;;;;;;;;;8.33;8.33;;;;;14.03;78.98;99975.97;5055588;28;45318;-72
2023/10/24 02:05:14;;;;;;;;;13.67;11.67;;;;;14.14;78.58;99985.34;5057225;28;45373;-69
2023/10/24 02:07:39;;;;;;;;;12.00;12.00;;;;;14.04;78.61;99963.44;5058330;28;45404;-69
2023/10/24 02:10:05;;;;;;;;;12.25;9.75;;;;;14.19;78.81;99978.41;5055714;28;48058;-69
2023/10/24 02:12:31;;;;;;;;;15.67;14.00;;;;;14.19;78.75;99980.25;5056386;28;45229;-71
2023/10/24 02:14:56;;;;;;;;;13.67;11.33;;;;;14.17;79.11;99971.59;5056386;28;45479;-69
2023/10/24 02:17:22;;;;;;;;;13.67;13.00;;;;;14.16;78.91;99968.09;5057097;28;45250;-69
2023/10/24 02:19:47;;;;;;;;;10.67;10.67;;;;;14.14;79.03;99967.47;5056772;28;45786;-69
2023/10/24 02:22:13;;;;;;;;;12.67;11.33;;;;;14.10;79.21;99960.00;5056147;28;61507;-70
2023/10/24 02:24:38;;;;;;;;;12.33;10.33;;;;;13.90;79.12;99933.00;5057035;28;45298;-69
2023/10/24 02:27:04;;;;;;;;;11.33;11.33;;;;;14.17;79.36;99976.94;5056429;28;45277;-69
2023/10/24 02:29:33;;;;;;;;;10.33;10.33;;;;;14.18;79.22;99971.41;5056697;28;45548;-69
2023/10/24 02:31:58;;;;;;;;;14.33;12.00;;;;;14.24;79.19;99985.91;5056537;28;45601;-69
2023/10/24 02:34:23;;;;;;;;;12.00;9.00;;;;;14.15;79.46;99969.13;5038493;28;45775;-70
2023/10/24 02:36:49;;;;;;;;;13.33;10.33;;;;;14.17;79.13;99959.06;5039065;28;45492;-70
2023/10/24 02:39:14;;;;;;;;;14.33;13.00;;;;;14.26;78.97;99973.16;5054701;28;53800;-69
2023/10/24 02:41:39;;;;;;;;;11.67;10.67;;;;;14.27;79.22;99981.00;5035989;28;45465;-73
2023/10/24 02:44:04;;;;;;;;;13.33;12.00;;;;;14.27;79.13;99967.63;5055826;28;45547;-69
2023/10/24 02:46:30;;;;;;;;;11.67;9.67;;;;;14.21;79.10;99968.34;5057207;28;45321;-69
2023/10/24 02:48:55;;;;;;;;;12.00;11.00;;;;;14.23;79.34;99974.38;5056042;28;47532;-69
2023/10/24 02:51:20;;;;;;;;;9.67;9.67;;;;;14.24;79.23;99965.34;5056064;28;55947;-69
2023/10/24 02:53:46;;;;;;;;;13.75;12.25;;;;;14.20;79.33;99958.69;5056624;28;45457;-70
2023/10/24 02:56:12;;;;;;;;;11.00;11.00;;;;;14.34;79.13;99977.56;5056506;28;45306;-69
2023/10/24 02:58:37;;;;;;;;;11.33;11.00;;;;;14.23;79.02;99953.00;5056176;28;46734;-69
2023/10/24 03:01:04;;;;;;;;;12.00;10.67;;;;;14.35;79.02;99966.69;5056048;28;45229;-69
2023/10/24 03:03:30;;;;;;;;;13.67;13.67;;;;;14.24;78.99;99949.31;5056125;28;45392;-69
2023/10/24 03:05:55;;;;;;;;;11.33;10.00;;;;;14.05;79.20;99917.81;5040606;28;45479;-69
2023/10/24 03:08:20;;;;;;;;;12.33;12.33;;;;;14.29;79.05;99968.28;5049746;28;46957;-70
2023/10/24 03:10:46;;;;;;;;;13.67;12.33;;;;;14.23;79.73;99958.34;5057532;28;46283;-70
2023/10/24 03:13:11;;;;;;;;;8.33;8.33;;;;;14.28;79.51;99957.78;5049086;28;62518;-70
2023/10/24 03:15:39;;;;;;;;;13.67;12.33;;;;;14.31;79.40;99954.72;5040658;28;45464;-70
2023/10/24 03:18:04;;;;;;;;;13.33;11.33;;;;;14.09;79.24;99916.41;5058584;28;46924;-69
2023/10/24 03:20:29;;;;;;;;;14.33;13.00;;;;;14.29;79.24;99946.88;5054461;28;45454;-70
2023/10/24 03:22:55;;;;;;;;;11.00;11.00;;;;;14.38;79.74;99970.84;5047993;28;45238;-70
2023/10/24 03:25:20;;;;;;;;;13.00;10.67;;;;;14.38;79.31;99965.47;5058301;28;45612;-69
2023/10/24 03:27:46;;;;;;;;;11.33;11.33;;;;;14.23;80.06;99953.00;5058282;28;47490;-69
2023/10/24 03:30:11;;;;;;;;;8.67;8.67;;;;;14.35;79.84;99971.22;5058571;28;45537;-69
2023/10/24 03:32:36;;;;;;;;;9.00;9.00;;;;;14.18;79.74;99927.81;5041066;28;45263;-69
2023/10/24 03:35:02;;;;;;;;;11.00;10.00;;;;;14.36;79.90;99962.16;5059052;28;46615;-69
2023/10/24 03:37:27;;;;;;;;;10.67;10.33;;;;;14.37;80.09;99970.00;5057745;28;46518;-69
2023/10/24 03:39:52;;;;;;;;;10.67;10.67;;;;;14.37;79.98;99964.66;5059011;28;54955;-69
2023/10/24 03:42:18;;;;;;;;;9.67;9.67;;;;;14.33;79.54;99955.34;5059207;28;45191;-69
2023/10/24 03:44:43;;;;;;;;;8.00;8.00;;;;;14.06;79.90;99907.94;5059357;28;45482;-69
2023/10/24 03:47:09;;;;;;;;;6.00;6.00;;;;;14.42;80.16;99969.47;5041252;28;47445;-70
2023/10/24 03:49:34;;;;;;;;;5.33;5.33;;;;;14.16;80.09;99936.03;5058989;28;45397;-70
2023/10/24 03:51:59;;;;;;;;;9.33;9.33;;;;;14.43;79.87;99960.44;5059217;28;45452;-70
2023/10/24 03:54:26;;;;;;;;;7.33;7.33;;;;;14.43;79.98;99965.78;5059363;28;45407;-69
2023/10/24 03:56:51;;;;;;;;;13.00;9.33;;;;;14.46;80.05;99966.25;5058469;28;45682;-69
2023/10/24 03:59:16;;;;;;;;;8.33;8.33;;;;;14.42;80.16;99967.63;5058976;28;45559;-71
2023/10/24 04:01:42;;;;;;;;;8.33;8.33;;;;;14.41;80.11;99965.94;5058429;28;48935;-69
2023/10/24 04:04:07;;;;;;;;;9.67;7.67;;;;;14.08;80.28;99911.25;5058252;28;45448;-68
2023/10/24 04:06:36;;;;;;;;;8.67;8.67;;;;;14.34;80.46;99966.88;5058623;28;46280;-69
2023/10/24 04:09:04;;;;;;;;;8.00;8.00;;;;;14.30;80.80;99969.94;5058714;28;45462;-69
2023/10/24 04:11:30;;;;;;;;;8.00;8.00;;;;;14.27;80.73;99962.28;5057910;28;45353;-70
2023/10/24 04:13:56;;;;;;;;;8.33;6.00;;;;;14.22;81.40;99967.38;5040898;28;45388;-69
2023/10/24 04:16:21;;;;;;;;;9.00;7.67;;;;;13.81;81.13;99894.03;5056636;28;49303;-69
2023/10/24 04:18:47;;;;;;;;;6.00;6.00;;;;;14.25;81.53;99960.81;5058478;28;45420;-71
2023/10/24 04:21:15;;;;;;;;;6.33;6.33;;;;;14.24;81.19;99961.84;5058599;28;45439;-70
2023/10/24 04:23:41;;;;;;;;;8.33;7.33;;;;;14.15;81.40;99938.88;5058599;28;45544;-69
2023/10/24 04:26:06;;;;;;;;;6.67;6.67;;;;;14.20;81.45;99953.34;5057732;28;46720;-69
2023/10/24 04:28:32;;;;;;;;;7.33;6.00;;;;;14.02;81.36;99939.56;5058387;28;45248;-70
2023/10/24 04:30:57;;;;;;;;;7.33;6.00;;;;;14.17;81.49;99953.72;5057591;28;45555;-72
2023/10/24 04:33:22;;;;;;;;;9.00;6.00;;;;;14.25;81.18;99971.50;5057765;28;45606;-70
2023/10/24 04:35:50;;;;;;;;;6.33;6.33;;;;;14.14;81.13;99943.41;5058015;28;46222;-70
2023/10/24 04:38:16;;;;;;;;;4.00;4.00;;;;;14.32;81.16;99967.91;5058081;28;45477;-70
2023/10/24 04:40:42;;;;;;;;;7.67;7.67;;;;;14.33;81.24;99971.41;5058356;28;45313;-70
2023/10/24 04:43:08;;;;;;;;;7.67;6.33;;;;;14.33;81.08;99963.38;5057782;28;45656;-69
2023/10/24 04:45:35;;;;;;;;;6.67;6.67;;;;;14.29;81.13;99936.19;5057747;28;45837;-69
2023/10/24 04:48:01;;;;;;;;;7.00;7.00;;;;;14.30;81.05;99953.88;5058080;28;45420;-70
2023/10/24 04:50:26;;;;;;;;;8.33;8.00;;;;;14.20;81.37;99953.34;5058284;28;45317;-69
2023/10/24 04:52:52;;;;;;;;;8.00;7.33;;;;;14.34;80.85;99974.91;5058347;28;45412;-69
2023/10/24 04:55:17;;;;;;;;;5.67;5.67;;;;;14.36;80.89;99975.53;5058218;28;46794;-68
2023/10/24 04:57:43;;;;;;;;;5.33;5.33;;;;;14.25;80.93;99945.59;5057315;28;45445;-71
2023/10/24 05:00:13;;;;;;;;;5.00;5.00;;;;;14.32;80.86;99946.50;5057870;28;45435;-70
2023/10/24 05:02:39;;;;;;;;;7.50;6.25;;;;;14.38;80.83;99960.13;5057593;28;45494;-70
2023/10/24 05:05:05;;;;;;;;;6.00;6.00;;;;;14.30;80.94;99953.88;5057633;28;46297;-70
2023/10/24 05:07:31;;;;;;;;;6.67;6.67;;;;;14.32;81.48;99973.25;5057562;28;45249;-70
2023/10/24 05:09:56;;;;;;;;;4.67;4.33;;;;;14.24;81.75;99957.31;5057876;28;45261;-70
2023/10/24 05:12:21;;;;;;;;;5.33;5.33;;;;;14.22;81.49;99951.34;5056746;28;45507;-70
2023/10/24 05:14:47;;;;;;;;;5.00;4.67;;;;;14.18;82.03;99955.38;5056631;28;46574;-70
2023/10/24 05:17:13;;;;;;;;;5.00;5.00;;;;;14.28;81.68;99961.28;5057147;28;45597;-70
2023/10/24 05:19:39;;;;;;;;;4.33;4.33;;;;;14.30;81.49;99947.72;5057825;28;45534;-69
2023/10/24 05:22:04;;;;;;;;;5.33;5.33;;;;;14.38;81.27;99958.28;5057908;28;45473;-70
2023/10/24 05:24:29;;;;;;;;;6.67;6.00;;;;;14.37;81.29;99958.47;5057469;28;46440;-70
2023/10/24 05:26:55;;;;;;;;;4.00;4.00;;;;;14.31;81.32;99950.19;5055980;28;45517;-70
2023/10/24 05:29:21;;;;;;;;;3.25;3.25;;;;;14.30;81.51;99958.41;5057060;28;45262;-70
2023/10/24 05:31:46;;;;;;;;;6.33;5.33;;;;;14.40;81.19;99966.13;5057538;28;45404;-72
2023/10/24 05:34:11;;;;;;;;;6.67;5.67;;;;;14.41;81.15;99963.25;5056790;28;50978;-70
2023/10/24 05:36:36;;;;;;;;;4.00;4.00;;;;;14.39;80.90;99951.91;5056704;28;53069;-70
2023/10/24 05:39:02;;;;;;;;;4.33;4.33;;;;;14.29;81.32;99941.53;5057133;28;45356;-70
2023/10/24 05:41:27;;;;;;;;;6.00;6.00;;;;;14.37;81.58;99937.91;5056777;28;45475;-69
2023/10/24 05:43:52;;;;;;;;;5.33;5.33;;;;;14.39;81.36;99940.41;5056320;28;53538;-70
2023/10/24 05:46:18;;;;;;;;;4.67;4.67;;;;;14.38;80.91;99923.53;5055857;28;47072;-70
2023/10/24 05:48:43;;;;;;;;;5.33;3.67;;;;;14.32;81.40;99929.63;5057018;28;45456;-70
2023/10/24 05:51:10;;;;;;;;;4.00;4.00;;;;;14.28;81.33;99934.53;5037832;28;45511;-70
2023/10/24 05:53:35;;;;;;;;;3.67;3.67;;;;;14.28;81.31;99939.88;5056351;28;46355;-69
2023/10/24 05:56:02;;;;;;;;;6.25;5.25;;;;;14.37;81.14;99950.47;5061811;28;45192;-69
2023/10/24 05:58:27;;;;;;;;;4.67;4.67;;;;;14.41;80.91;99960.59;5056217;28;45673;-70
2023/10/24 06:00:53;;;;;;;;;7.00;4.00;;;;;14.27;80.96;99934.72;5057262;28;45218;-70
2023/10/24 06:03:19;;;;;;;;;4.00;4.00;;;;;14.44;81.13;99951.41;5056846;28;46608;-70
2023/10/24 06:05:44;;;;;;;;;8.67;7.67;;;;;14.21;81.15;99912.22;5056633;28;45338;-70
2023/10/24 06:08:10;;;;;;;;;8.33;8.33;;;;;14.35;81.08;99941.78;5055151;28;45441;-69
2023/10/24 06:10:35;;;;;;;;;5.00;5.00;;;;;14.25;80.60;99923.38;5057017;28;45312;-69
2023/10/24 06:13:02;;;;;;;;;4.67;4.67;;;;;14.47;80.72;99962.56;5038259;28;46853;-70
2023/10/24 06:15:27;;;;;;;;;5.67;5.67;;;;;14.49;80.91;99973.06;5056376;28;45392;-69
2023/10/24 06:17:55;;;;;;;;;8.33;7.67;;;;;14.53;80.75;99985.03;5056731;28;45431;-70
2023/10/24 06:20:21;;;;;;;;;6.33;6.33;;;;;14.44;80.46;99964.78;5056828;28;45526;-70
2023/10/24 06:22:46;;;;;;;;;5.25;5.25;;;;;14.50;80.39;99985.41;5055618;28;45665;-72
2023/10/24 06:25:11;;;;;;;;;5.33;5.33;;;;;14.46;80.20;99974.28;5055827;28;45226;-70
2023/10/24 06:27:37;;;;;;;;;5.67;5.00;;;;;14.49;79.80;99983.75;5056245;28;45574;-70
2023/10/24 06:30:03;;;;;;;;;2.67;2.67;;;;;14.47;80.21;99983.94;5055490;28;45230;-70
2023/10/24 06:32:29;;;;;;;;;5.00;4.67;;;;;14.49;79.91;99989.13;5055836;28;45660;-70
2023/10/24 06:34:54;;;;;;;;;7.33;5.33;;;;;14.48;79.89;99982.09;5056387;28;45323;-70
2023/10/24 06:37:19;;;;;;;;;8.33;8.33;;;;;14.43;79.96;99979.16;5056071;28;47036;-69
2023/10/24 06:39:45;;;;;;;;;8.00;5.67;;;;;14.18;79.48;99939.34;5057087;28;45273;-70
2023/10/24 06:42:11;;;;;;;;;7.67;7.67;;;;;14.43;79.06;99984.50;5058162;28;46378;-70
2023/10/24 06:44:36;;;;;;;;;5.67;5.67;;;;;14.48;78.78;99990.13;5059297;28;53674;-70
2023/10/24 06:47:01;;;;;;;;;11.67;7.33;;;;;14.43;78.63;99979.16;5059422;28;45377;-70
2023/10/24 06:49:27;;;;;;;;;8.33;7.00;;;;;14.49;78.96;100002.50;5059555;28;45508;-70
2023/10/24 06:51:52;;;;;;;;;7.00;5.67;;;;;14.51;78.55;99995.09;5041423;28;47804;-69
2023/10/24 06:54:18;;;;;;;;;7.00;6.33;;;;;14.45;78.91;100001.22;5059430;28;45270;-68
2023/10/24 06:56:44;;;;;;;;;8.00;6.33;;;;;14.10;78.86;99951.97;5058350;28;45502;-74
2023/10/24 06:59:09;;;;;;;;;6.00;4.67;;;;;14.41;78.69;100018.59;5058575;28;45364;-71
2023/10/24 07:01:34;;;;;;;;;6.67;5.67;;;;;14.04;78.42;99955.41;5058805;28;45932;-69
2023/10/24 07:03:59;;;;;;;;;7.33;6.67;;;;;14.39;78.54;100024.13;5058052;28;61843;-69
2023/10/24 07:06:25;;;;;;;;;7.00;7.00;;;;;14.37;78.10;100018.13;5055184;28;45486;-72
2023/10/24 07:08:51;;;;;;;;;6.67;6.67;;;;;14.44;78.28;100034.31;5058675;28;45332;-68
2023/10/24 07:11:17;;;;;;;;;5.50;5.25;;;;;14.37;78.27;100025.31;5056364;28;46552;-71
2023/10/24 07:13:42;;;;;;;;;8.67;6.33;;;;;14.43;78.34;100038.84;5049962;28;45274;-72
2023/10/24 07:16:14;;;;;;;;;7.67;5.67;;;;;14.43;78.13;100046.00;5057806;28;45531;-69
2023/10/24 07:18:40;;;;;;;;;7.00;6.00;;;;;14.46;77.99;100038.47;5055070;28;45262;-69
2023/10/24 07:21:05;;;;;;;;;3.67;3.67;;;;;14.47;77.92;100056.16;5058927;28;45994;-70
2023/10/24 07:23:31;;;;;;;;;3.67;3.67;;;;;14.40;77.44;100033.81;5057992;28;45507;-70
2023/10/24 07:25:57;;;;;;;;;5.00;4.25;;;;;14.51;77.37;100052.09;5058739;28;45477;-70
2023/10/24 07:28:22;;;;;;;;;7.00;7.00;;;;;14.20;77.14;99993.44;5056051;28;45250;-69
2023/10/24 07:30:51;;;;;;;;;5.00;5.00;;;;;14.52;77.12;100052.94;5057036;28;45881;-71
2023/10/24 07:33:18;;;;;;;;;9.33;8.33;;;;;14.55;76.63;100055.22;5037289;28;45416;-71
2023/10/24 07:35:43;;;;;;;;;5.50;5.50;;;;;14.56;76.96;100059.56;5047036;28;45592;-70
2023/10/24 07:38:08;;;;;;;;;6.75;5.75;;;;;14.51;76.59;100035.22;5058135;28;45322;-70
2023/10/24 07:40:34;;;;;;;;;5.67;5.67;;;;;14.79;76.44;100054.06;5058425;28;45624;-70
2023/10/24 07:42:59;;;;;;;;;6.00;5.33;;;;;14.98;75.90;100053.47;5056989;28;46601;-70
2023/10/24 07:45:24;;;;;;;;;12.33;11.00;;;;;14.89;75.50;100004.59;5058763;28;47521;-70
2023/10/24 07:47:50;;;;;;;;;4.33;4.33;;;;;15.39;74.32;100051.00;5056588;28;45578;-70
2023/10/24 07:50:15;;;;;;;;;9.00;7.00;;;;;15.55;73.74;100043.72;5057575;28;52630;-70
2023/10/24 07:52:41;;;;;;;;;3.75;3.75;;;;;15.77;72.52;100058.78;5057428;28;45551;-69
2023/10/24 07:55:07;;;;;;;;;1.50;1.50;;;;;15.98;71.12;100077.50;5057821;28;45441;-71
2023/10/24 07:57:32;;;;;;;;;6.00;2.25;;;;;16.19;70.48;100063.19;5058829;28;45190;-70
2023/10/24 07:59:58;;;;;;;;;4.25;3.25;;;;;16.39;70.22;100057.94;5058602;28;46432;-70
2023/10/24 08:02:23;;;;;;;;;6.25;6.25;;;;;16.57;68.83;100055.56;5058106;28;52710;-69
2023/10/24 08:04:48;;;;;;;;;7.00;5.00;;;;;16.77;67.83;100058.34;5058657;28;45236;-70
2023/10/24 08:07:14;;;;;;;;;1.00;1.00;;;;;16.97;66.24;100056.56;5056527;28;45352;-70
2023/10/24 08:09:39;;;;;;;;;3.25;2.00;;;;;17.11;65.13;100057.44;5040038;28;47275;-69
2023/10/24 08:12:05;;;;;;;;;1.00;1.00;;;;;17.05;64.61;100017.97;5058395;28;46218;-70
2023/10/24 08:14:30;;;;;;;;;3.00;3.00;;;;;17.48;64.04;100064.13;5058568;28;45456;-68
2023/10/24 08:16:55;;;;;;;;;3.00;1.00;;;;;17.50;63.30;100028.97;5053407;28;47893;-82
2023/10/24 08:19:21;;;;;;;;;5.00;2.25;;;;;17.86;63.44;100050.09;5052148;28;46756;-75
2023/10/24 08:21:46;;;;;;;;;5.00;2.75;;;;;17.87;62.31;100014.91;5050120;28;45689;-71
2023/10/24 08:24:11;;;;;;;;;2.25;1.50;;;;;18.38;62.13;100072.53;5056609;28;53408;-69
2023/10/24 08:26:37;;;;;;;;;2.00;2.00;;;;;18.54;60.54;100077.47;5038558;28;45647;-70
2023/10/24 08:29:02;;;;;;;;;1.25;1.25;;;;;18.55;59.30;100057.59;5039206;28;47945;-70
2023/10/24 08:31:28;;;;;;;;;2.00;2.00;;;;;18.76;59.99;100075.34;5054184;28;45447;-69
2023/10/24 08:33:53;;;;;;;;;3.75;2.00;;;;;18.91;59.21;100065.13;5056517;28;45648;-71
2023/10/24 08:36:19;;;;;;;;;1.50;1.50;;;;;18.91;58.73;100053.53;5058175;28;45484;-71
2023/10/24 08:38:44;;;;;;;;;1.75;1.00;;;;;19.12;57.67;100070.19;5054419;28;47288;-70
2023/10/24 08:41:09;;;;;;;;;0.00;0.00;;;;;19.17;56.49;100082.19;5057314;28;46275;-72
2023/10/24 08:43:50;;;;;;;;;1.75;1.75;;;;;19.17;56.33;100074.09;5021244;28;45528;-70
2023/10/24 08:46:15;;;;;;;;;4.25;2.75;;;;;19.32;55.76;100082.72;5053300;28;45937;-68
2023/10/24 08:48:41;;;;;;;;;9.75;9.75;;;;;19.43;56.56;100073.97;5053493;28;46518;-74
2023/10/24 08:51:06;;;;;;;;;6.00;3.25;;;;;19.58;55.91;100082.56;5057378;28;45311;-68
2023/10/24 08:53:32;;;;;;;;;2.00;2.00;;;;;19.59;55.77;100056.44;5057293;28;45475;-67
2023/10/24 08:55:59;;;;;;;;;3.00;3.00;;;;;19.72;55.33;100070.66;5057201;28;45303;-68
2023/10/24 08:58:28;;;;;;;;;2.00;2.00;;;;;19.97;54.94;100080.59;5057272;28;46831;-68
2023/10/24 09:00:54;;;;;;;;;3.00;3.00;;;;;20.08;54.17;100085.28;5051856;28;45431;-68
2023/10/24 09:03:19;;;;;;;;;2.50;2.50;;;;;20.14;54.45;100076.28;5055922;28;45227;-70
2023/10/24 09:05:46;;;;;;;;;2.50;2.50;;;;;20.29;54.12;100090.25;5057079;28;45556;-69
2023/10/24 09:08:18;;;;;;;;;1.00;1.00;;;;;20.22;53.77;100067.06;5055803;28;46551;-69
2023/10/24 09:10:43;;;;;;;;;8.25;7.75;;;;;20.30;52.82;100081.09;5039154;28;45483;-69
2023/10/24 09:13:08;;;;;;;;;1.00;0.25;;;;;20.39;51.69;100094.31;5057527;28;45481;-69
2023/10/24 09:15:36;;;;;;;;;1.25;1.25;;;;;20.33;52.10;100096.03;5056186;28;45653;-70
2023/10/24 09:18:03;;;;;;;;;3.00;1.75;;;;;20.08;51.37;100066.38;5053648;28;46198;-69
2023/10/24 09:20:35;;;;;;;;;1.00;1.00;;;;;20.19;52.15;100102.59;5054994;28;45466;-69
2023/10/24 09:23:08;;;;;;;;;1.25;1.25;;;;;20.11;53.29;100094.81;5056233;28;45344;-69
2023/10/24 09:25:34;;;;;;;;;6.75;6.25;;;;;20.10;53.58;100088.56;5052215;28;45703;-68
2023/10/24 09:28:26;;;;;;;;;1.00;1.00;;;;;20.03;52.97;100102.16;5055025;28;46901;-69
2023/10/24 09:30:51;;;;;;;;;2.50;2.00;;;;;19.84;52.75;100092.34;5051550;28;45354;-70
2023/10/24 09:33:16;;;;;;;;;2.00;0.50;;;;;19.54;52.89;100053.56;5055417;28;45282;-69
2023/10/24 09:35:42;;;;;;;;;2.00;0.25;;;;;19.63;52.34;100095.41;5057396;28;45458;-69
2023/10/24 09:38:08;;;;;;;;;0.50;0.50;;;;;19.49;52.95;100102.72;5055484;28;45546;-70
2023/10/24 09:40:39;;;;;;;;;0.25;0.25;;;;;19.37;53.42;100096.38;5037695;28;45397;-69
2023/10/24 09:43:29;;;;;;;;;3.00;1.75;;;;;19.27;54.29;100098.72;5056050;28;45353;-69
2023/10/24 09:45:56;;;;;;;;;0.00;0.00;;;;;18.98;53.89;100098.25;5054297;28;45547;-70
2023/10/24 09:48:23;;;;;;;;;0.75;0.75;;;;;18.83;54.16;100100.41;5052933;28;46695;-68
2023/10/24 09:50:50;;;;;;;;;1.00;1.00;;;;;18.66;54.83;100080.38;5052922;28;45491;-69
2023/10/24 09:53:18;;;;;;;;;2.00;2.00;;;;;18.34;54.93;100047.91;5056851;28;45773;-68
2023/10/24 09:55:48;;;;;;;;;1.00;1.00;;;;;18.54;54.21;100097.13;5038324;28;45443;-69
2023/10/24 09:58:15;;;;;;;;;1.00;1.00;;;;;18.41;55.31;100096.34;5035688;28;46915;-69
2023/10/24 10:00:42;;;;;;;;;1.25;1.25;;;;;18.11;55.43;100074.47;5051506;28;45888;-68
2023/10/24 10:03:09;;;;;;;;;0.00;0.00;;;;;18.11;55.08;100096.81;5055756;28;45450;-76
2023/10/24 10:05:36;;;;;;;;;2.00;1.00;;;;;17.92;56.03;100082.34;5056477;28;45329;-69
2023/10/24 10:08:06;;;;;;;;;2.50;1.25;;;;;17.69;56.18;100046.16;5056843;28;47591;-69
2023/10/24 10:10:34;;;;;;;;;3.00;2.25;;;;;17.93;56.59;100105.50;5055258;28;45515;-68
2023/10/24 10:13:03;;;;;;;;;0.25;0.25;;;;;17.90;56.79;100105.94;5031478;28;45568;-69
2023/10/24 10:15:49;;;;;;;;;0.25;0.25;;;;;17.85;57.29;100091.47;5054268;28;45479;-68
2023/10/24 10:18:23;;;;;;;;;0.50;0.50;;;;;17.78;56.67;100102.19;5055737;28;46626;-70
2023/10/24 10:20:59;;;;;;;;;1.75;1.75;;;;;17.74;57.20;100103.66;5054470;28;45503;-69
2023/10/24 10:23:31;;;;;;;;;0.00;0.00;;;;;17.70;57.23;100104.28;5045849;28;45416;-70
2023/10/24 10:26:10;;;;;;;;;2.00;2.00;;;;;17.57;57.42;100094.28;5037562;28;45590;-72
2023/10/24 10:29:05;;;;;;;;;4.00;4.00;;;;;17.57;57.80;100099.66;5055459;28;46913;-72
2023/10/24 10:31:36;;;;;;;;;0.50;0.50;;;;;17.49;56.96;100098.03;5047913;28;45641;-71
2023/10/24 10:34:02;;;;;;;;;1.25;1.25;;;;;17.06;56.69;100051.84;5054640;28;45583;-70
2023/10/24 10:36:28;;;;;;;;;1.00;1.00;;;;;17.29;57.03;100092.59;5056572;28;45452;-71
2023/10/24 10:38:59;;;;;;;;;0.00;0.00;;;;;17.39;57.01;100094.06;5054879;28;46376;-71
2023/10/24 10:41:26;;;;;;;;;0.25;0.25;;;;;17.38;56.81;100095.09;5055789;28;45538;-70
2023/10/24 10:44:02;;;;;;;;;2.00;0.50;;;;;17.07;57.45;100056.19;5056236;28;45380;-71
2023/10/24 10:46:30;;;;;;;;;0.00;0.00;;;;;17.25;56.77;100079.78;5056655;28;45534;-70
2023/10/24 10:48:58;;;;;;;;;1.00;1.00;;;;;17.11;56.43;100091.53;5056853;28;46221;-69
2023/10/24 10:51:30;;;;;;;;;2.00;2.00;;;;;17.04;57.03;100086.16;5039123;28;45295;-68
2023/10/24 10:53:55;;;;;;;;;1.00;1.00;;;;;17.09;57.13;100086.34;5056596;28;45187;-70
2023/10/24 10:56:31;;;;;;;;;1.25;1.25;;;;;17.10;56.72;100090.69;5056808;28;45276;-69
2023/10/24 10:59:30;;;;;;;;;0.25;0.25;;;;;17.17;57.43;100082.66;5054963;28;46810;-70
2023/10/24 11:02:43;;;;;;;;;2.00;2.00;;;;;17.20;57.48;100082.25;5056297;28;45367;-69
2023/10/24 11:05:36;;;;;;;;;0.75;0.75;;;;;17.27;57.07;100073.19;5056328;28;45470;-70
2023/10/24 11:08:04;;;;;;;;;5.00;1.75;;;;;17.14;56.89;100067.78;5038717;28;45444;-69
2023/10/24 11:10:52;;;;;;;;;1.00;1.00;;;;;17.10;56.76;100082.63;5056130;28;46711;-69
2023/10/24 11:13:38;;;;;;;;;0.50;0.50;;;;;16.84;56.89;100050.34;5056360;28;45412;-72
2023/10/24 11:16:05;;;;;;;;;1.25;1.00;;;;;17.10;56.68;100085.31;5056262;28;45542;-70
2023/10/24 11:18:32;;;;;;;;;2.50;1.00;;;;;17.13;55.91;100090.28;5056153;28;45428;-68
2023/10/24 11:20:58;;;;;;;;;0.75;0.75;;;;;17.10;56.57;100090.69;5055363;28;45933;-68
2023/10/24 11:23:25;;;;;;;;;3.50;1.00;;;;;17.10;55.76;100087.19;5056177;28;45206;-69